createdAt,value
2016-08-24T11:25:09.304Z,32.65
2016-08-24T11:26:21.603Z,32.74
2016-08-24T11:27:33.212Z,32.79
2016-08-24T11:28:43.389Z,32.8
2016-08-24T11:29:54.964Z,32.69
2016-08-24T11:31:05.835Z,32.75
2016-08-24T11:32:17.434Z,32.71
2016-08-24T11:33:29.043Z,32.74
2016-08-24T11:34:40.659Z,32.75
2016-08-24T11:35:52.967Z,32.84
2016-08-24T11:37:05.283Z,33.09
2016-08-24T11:38:16.901Z,33.21
2016-08-24T11:39:29.221Z,33.53
2016-08-24T11:40:41.744Z,33.74
2016-08-24T11:41:51.958Z,33.92
2016-08-24T11:43:03.551Z,34.02
2016-08-24T11:44:15.142Z,34.08
2016-08-24T11:45:26.729Z,34.05
2016-08-24T11:46:39.040Z,33.87
2016-08-24T11:47:50.637Z,33.46
2016-08-24T11:49:02.246Z,32.89
2016-08-24T11:50:13.137Z,32.35
2016-08-24T11:51:24.716Z,32.19
2016-08-24T11:52:36.338Z,32.23
2016-08-24T11:53:47.233Z,32.35
2016-08-24T11:54:59.508Z,32.57
2016-08-24T11:56:11.095Z,32.68
2016-08-24T11:57:22.671Z,32.91
2016-08-24T11:58:33.562Z,32.9
2016-08-24T11:59:45.851Z,33.16
2016-08-24T12:00:56.747Z,33.36
2016-08-24T12:02:07.645Z,33.58
2016-08-24T12:03:20.180Z,33.17
2016-08-24T12:04:32.475Z,33.09
2016-08-24T12:05:44.087Z,33.11
2016-08-24T12:06:55.687Z,32.71
2016-08-24T12:08:07.983Z,33.21
2016-08-24T12:09:19.590Z,33.44
2016-08-24T12:10:31.181Z,33.68
2016-08-24T12:11:43.480Z,33.5
2016-08-24T12:12:55.764Z,33.03
2016-08-24T12:14:07.327Z,32.65
2016-08-24T12:15:19.609Z,32.76
2016-08-24T12:16:31.886Z,32.64
2016-08-24T12:17:43.447Z,32.13
2016-08-24T12:18:55.728Z,32.2
2016-08-24T12:20:06.598Z,32.43
2016-08-24T12:21:17.477Z,32.98
2016-08-24T12:22:29.804Z,33.24
2016-08-24T12:23:42.084Z,33.44
2016-08-24T12:24:53.674Z,33.36
2016-08-24T12:26:04.558Z,33.05
2016-08-24T12:27:15.436Z,32.61
2016-08-24T12:28:27.741Z,32.31
2016-08-24T12:29:40.044Z,32.1
2016-08-24T12:30:52.333Z,31.8
2016-08-24T12:32:03.912Z,31.91
2016-08-24T12:33:15.478Z,31.91
2016-08-24T12:34:27.070Z,32.31
2016-08-24T12:35:39.368Z,32.59
2016-08-24T12:36:51.645Z,32.47
2016-08-24T12:38:03.926Z,32.47
2016-08-24T12:39:15.539Z,32.86
2016-08-24T12:40:26.436Z,33.21
2016-08-24T12:41:38.718Z,33.59
2016-08-24T12:42:50.325Z,33.75
2016-08-24T12:44:01.219Z,34.11
2016-08-24T12:45:12.107Z,34.19
2016-08-24T12:46:22.990Z,34.27
2016-08-24T12:47:35.281Z,34.14
2016-08-24T12:48:47.578Z,33.4
2016-08-24T12:49:58.462Z,32.65
2016-08-24T12:51:10.046Z,32.17
2016-08-24T12:52:22.340Z,31.74
2016-08-24T12:53:33.922Z,31.49
2016-08-24T12:54:46.215Z,31.43
2016-08-24T12:55:57.799Z,31.26
2016-08-24T12:57:10.092Z,31.45
2016-08-24T12:58:22.382Z,31.75
2016-08-24T12:59:33.965Z,31.95
2016-08-24T13:00:44.135Z,32.19
2016-08-24T13:01:55.699Z,32.38
2016-08-24T13:03:07.973Z,32.47
2016-08-24T13:04:19.551Z,32.62
2016-08-24T13:05:30.468Z,32.68
2016-08-24T13:06:42.734Z,32.79
2016-08-24T13:07:54.306Z,32.59
2016-08-24T13:09:05.195Z,32.56
2016-08-24T13:10:17.460Z,32.54
2016-08-24T13:11:27.650Z,32.56
2016-08-24T13:12:39.974Z,32.67
2016-08-24T13:13:50.880Z,32.67
2016-08-24T13:15:02.465Z,32.69
2016-08-24T13:16:13.330Z,32.69
2016-08-24T13:17:24.924Z,32.74
2016-08-24T13:18:35.125Z,32.67
2016-08-24T13:19:45.291Z,32.74
2016-08-24T13:20:57.607Z,32.9
2016-08-24T13:22:09.180Z,32.42
2016-08-24T13:23:21.474Z,31.9
2016-08-24T13:24:33.763Z,31.71
2016-08-24T13:25:45.331Z,32.27
2016-08-24T13:26:57.667Z,32.65
2016-08-24T13:28:09.267Z,33.01
2016-08-24T13:29:19.451Z,33.16
2016-08-24T13:30:31.752Z,33.12
2016-08-24T13:31:44.035Z,32.64
2016-08-24T13:32:55.618Z,32.23
2016-08-24T13:34:07.205Z,32.37
2016-08-24T13:35:18.777Z,32.53
2016-08-24T13:36:28.971Z,32.62
2016-08-24T13:37:41.248Z,32.68
2016-08-24T13:38:53.525Z,32.38
2016-08-24T13:40:05.829Z,32.49
2016-08-24T13:41:18.124Z,32.47
2016-08-24T13:42:30.428Z,32.56
2016-08-24T13:43:42.024Z,32.64
2016-08-24T13:44:54.310Z,32.57
2016-08-24T13:46:05.192Z,32.68
2016-08-24T13:47:17.531Z,32.74
2016-08-24T13:48:29.113Z,32.86
2016-08-24T13:49:41.433Z,32.65
2016-08-24T13:50:53.717Z,32.24
2016-08-24T13:52:06.145Z,31.78
2016-08-24T13:53:17.025Z,31.44
2016-08-24T13:54:28.611Z,31.18
2016-08-24T13:55:39.474Z,30.97
2016-08-24T13:56:51.772Z,30.82
2016-08-24T13:58:04.075Z,31.19
2016-08-24T13:59:15.664Z,31.43
2016-08-24T14:00:28.199Z,31.7
2016-08-24T14:01:40.491Z,31.9
2016-08-24T14:02:52.067Z,32.01
2016-08-24T14:04:03.692Z,32.24
2016-08-24T14:05:15.255Z,32.43
2016-08-24T14:06:26.154Z,32.43
2016-08-24T14:07:37.769Z,32.52
2016-08-24T14:08:49.334Z,32.43
2016-08-24T14:10:00.919Z,31.9
2016-08-24T14:11:12.494Z,31.63
2016-08-24T14:12:24.777Z,31.67
2016-08-24T14:13:35.647Z,31.71
2016-08-24T14:14:47.965Z,31.91
2016-08-24T14:15:59.553Z,31.88
2016-08-24T14:17:11.141Z,31.91
2016-08-24T14:18:23.432Z,31.94
2016-08-24T14:19:35.758Z,31.95
2016-08-24T14:20:47.337Z,32
2016-08-24T14:21:59.653Z,31.94
2016-08-24T14:23:10.555Z,31.91
2016-08-24T14:24:22.131Z,31.9
2016-08-24T14:25:33.715Z,31.95
2016-08-24T14:26:45.995Z,31.94
2016-08-24T14:27:57.608Z,31.91
2016-08-24T14:29:09.895Z,32
2016-08-24T14:30:22.193Z,31.97
2016-08-24T14:31:34.471Z,32.05
2016-08-24T14:32:46.737Z,32.03
2016-08-24T14:33:59.029Z,31.94
2016-08-24T14:35:11.341Z,32.05
2016-08-24T14:36:23.638Z,32.08
2016-08-24T14:37:35.933Z,31.91
2016-08-24T14:38:46.808Z,31.86
2016-08-24T14:39:59.108Z,31.67
2016-08-24T14:41:10.697Z,31.56
2016-08-24T14:42:23.005Z,31.49
2016-08-24T14:43:35.283Z,31.47
2016-08-24T14:44:46.159Z,31.41
2016-08-24T14:45:57.737Z,31.52
2016-08-24T14:47:09.308Z,31.44
2016-08-24T14:48:21.632Z,31.49
2016-08-24T14:49:33.219Z,31.65
2016-08-24T14:50:44.106Z,31.62
2016-08-24T14:51:53.583Z,31.63
2016-08-24T14:53:05.874Z,31.67
2016-08-24T14:54:18.163Z,31.6
2016-08-24T14:55:29.762Z,31.52
2016-08-24T14:56:42.069Z,31.34
2016-08-24T14:57:53.646Z,31.1
2016-08-24T14:59:05.927Z,31.18
2016-08-24T15:00:17.526Z,31.21
2016-08-24T15:01:29.130Z,31.15
2016-08-24T15:02:40.077Z,31.15
2016-08-24T15:03:52.368Z,30.93
2016-08-24T15:05:03.943Z,30.77
2016-08-24T15:06:14.846Z,30.78
2016-08-24T15:07:27.160Z,30.88
2016-08-24T15:08:39.453Z,30.89
2016-08-24T15:09:51.757Z,31.01
2016-08-24T15:11:04.075Z,31
2016-08-24T15:12:15.673Z,31.08
2016-08-24T15:13:27.957Z,31.01
2016-08-24T15:14:38.843Z,31.01
2016-08-24T15:15:49.731Z,31.01
2016-08-24T15:17:02.013Z,31
2016-08-24T15:18:13.597Z,31.04
2016-08-24T15:19:24.455Z,30.99
2016-08-24T15:20:35.332Z,30.99
2016-08-24T15:21:47.629Z,30.97
2016-08-24T15:22:59.198Z,30.88
2016-08-24T15:24:11.484Z,30.88
2016-08-24T15:25:23.800Z,30.88
2016-08-24T15:26:36.115Z,30.96
2016-08-24T15:27:48.390Z,30.81
2016-08-24T15:28:59.327Z,30.89
2016-08-24T15:30:11.748Z,30.81
2016-08-24T15:31:24.039Z,30.81
2016-08-24T15:32:35.642Z,30.84
2016-08-24T15:33:47.942Z,30.78
2016-08-24T15:34:59.519Z,30.69
2016-08-24T15:36:11.812Z,30.71
2016-08-24T15:37:23.374Z,30.77
2016-08-24T15:38:34.995Z,30.77
2016-08-24T15:39:45.872Z,30.7
2016-08-24T15:40:57.497Z,30.78
2016-08-24T15:42:07.692Z,30.82
2016-08-24T15:43:19.265Z,30.7
2016-08-24T15:44:30.146Z,30.67
2016-08-24T15:45:41.718Z,30.66
2016-08-24T15:46:53.293Z,30.73
2016-08-24T15:48:05.796Z,30.64
2016-08-24T15:49:18.091Z,30.63
2016-08-24T15:50:29.662Z,30.67
2016-08-24T15:51:41.279Z,30.56
2016-08-24T15:52:52.156Z,30.56
2016-08-24T15:54:04.452Z,30.52
2016-08-24T15:55:16.058Z,30.42
2016-08-24T15:56:28.356Z,30.57
2016-08-24T15:57:40.625Z,30.49
2016-08-24T15:58:51.512Z,30.47
2016-08-24T16:00:03.109Z,30.47
2016-08-24T16:01:15.409Z,30.34
2016-08-24T16:02:27.728Z,30.37
2016-08-24T16:03:37.918Z,30.31
2016-08-24T16:04:49.517Z,30.26
2016-08-24T16:06:01.809Z,30.31
2016-08-24T16:07:12.709Z,30.25
2016-08-24T16:08:24.301Z,30.22
2016-08-24T16:09:35.190Z,30.22
2016-08-24T16:10:46.774Z,30.18
2016-08-24T16:11:56.955Z,30.11
2016-08-24T16:13:08.558Z,30.06
2016-08-24T16:14:20.156Z,30.09
2016-08-24T16:15:32.462Z,29.97
2016-08-24T16:16:44.761Z,30.02
2016-08-24T16:17:56.334Z,29.91
2016-08-24T16:19:08.625Z,29.88
2016-08-24T16:20:20.917Z,29.75
2016-08-24T16:21:32.522Z,29.82
2016-08-24T16:22:44.832Z,29.79
2016-08-24T16:23:56.397Z,29.67
2016-08-24T16:25:07.329Z,29.6
2016-08-24T16:26:18.910Z,29.66
2016-08-24T16:27:30.504Z,29.63
2016-08-24T16:28:41.441Z,29.54
2016-08-24T16:29:53.748Z,29.45
2016-08-24T16:31:05.336Z,29.39
2016-08-24T16:32:16.917Z,29.42
2016-08-24T16:33:28.497Z,29.48
2016-08-24T16:34:39.392Z,29.45
2016-08-24T16:35:50.964Z,29.33
2016-08-24T16:37:02.542Z,29.28
2016-08-24T16:38:14.850Z,29.2
2016-08-24T16:39:27.150Z,29.24
2016-08-24T16:40:39.413Z,29.1
2016-08-24T16:41:50.981Z,29.05
2016-08-24T16:43:02.588Z,29.06
2016-08-24T16:44:13.472Z,28.92
2016-08-24T16:45:23.641Z,28.88
2016-08-24T16:46:35.224Z,28.9
2016-08-24T16:47:46.799Z,28.73
2016-08-24T16:48:58.392Z,28.78
2016-08-24T16:50:10.702Z,28.63
2016-08-24T16:51:22.994Z,28.61
2016-08-24T16:52:35.312Z,28.54
2016-08-24T16:53:46.979Z,28.48
2016-08-24T16:54:58.572Z,28.48
2016-08-24T16:56:10.170Z,28.46
2016-08-24T16:57:21.043Z,28.31
2016-08-24T16:58:33.435Z,28.27
2016-08-24T16:59:45.116Z,28.28
2016-08-24T17:00:55.993Z,28.23
2016-08-24T17:02:06.196Z,28.14
2016-08-24T17:03:17.088Z,28.17
2016-08-24T17:04:29.426Z,28.09
2016-08-24T17:05:41.759Z,28.02
2016-08-24T17:06:52.651Z,27.98
2016-08-24T17:08:04.918Z,27.98
2016-08-24T17:09:17.194Z,27.94
2016-08-24T17:10:29.482Z,27.86
2016-08-24T17:11:41.094Z,27.9
2016-08-24T17:12:51.976Z,27.81
2016-08-24T17:14:02.868Z,27.74
2016-08-24T17:15:14.453Z,27.79
2016-08-24T17:16:26.736Z,27.72
2016-08-24T17:17:38.388Z,27.64
2016-08-24T17:18:49.266Z,27.53
2016-08-24T17:20:01.556Z,27.57
2016-08-24T17:21:13.163Z,27.36
2016-08-24T17:22:24.743Z,27.37
2016-08-24T17:23:35.621Z,27.42
2016-08-24T17:24:45.093Z,27.3
2016-08-24T17:25:56.674Z,27.26
2016-08-24T17:27:08.285Z,27.24
2016-08-24T17:28:20.807Z,27.11
2016-08-24T17:29:31.769Z,27.05
2016-08-24T17:30:42.769Z,27.11
2016-08-24T17:31:55.078Z,26.99
2016-08-24T17:33:05.961Z,26.93
2016-08-24T17:34:18.234Z,27.05
2016-08-24T17:35:29.100Z,26.94
2016-08-24T17:36:41.601Z,26.99
2016-08-24T17:37:53.925Z,26.96
2016-08-24T17:39:05.504Z,26.87
2016-08-24T17:40:16.395Z,26.76
2016-08-24T17:41:28.677Z,26.71
2016-08-24T17:42:40.586Z,26.68
2016-08-24T17:43:52.948Z,26.68
2016-08-24T17:45:05.230Z,26.64
2016-08-24T17:46:16.809Z,26.6
2016-08-24T17:47:28.408Z,26.56
2016-08-24T17:48:40.199Z,26.49
2016-08-24T17:49:52.512Z,26.42
2016-08-24T17:51:04.108Z,26.45
2016-08-24T17:52:16.411Z,26.38
2016-08-24T17:53:28.233Z,26.27
2016-08-24T17:54:40.991Z,26.3
2016-08-24T17:55:53.552Z,26.24
2016-08-24T17:57:05.140Z,26.23
2016-08-24T17:58:17.422Z,26.17
2016-08-24T17:59:28.999Z,26.15
2016-08-24T18:00:41.340Z,26.11
2016-08-24T18:01:52.947Z,26.15
2016-08-24T18:03:05.223Z,26.04
2016-08-24T18:04:17.478Z,26
2016-08-24T18:05:29.082Z,25.99
2016-08-24T18:06:41.434Z,25.93
2016-08-24T18:07:52.324Z,25.91
2016-08-24T18:09:03.959Z,25.85
2016-08-24T18:10:15.545Z,25.88
2016-08-24T18:11:27.153Z,25.84
2016-08-24T18:12:39.437Z,25.74
2016-08-24T18:13:51.043Z,25.71
2016-08-24T18:15:02.619Z,25.71
2016-08-24T18:16:14.946Z,25.62
2016-08-24T18:17:27.271Z,25.67
2016-08-24T18:18:38.852Z,25.56
2016-08-24T18:19:50.428Z,25.54
2016-08-24T18:21:02.958Z,25.54
2016-08-24T18:22:15.270Z,25.52
2016-08-24T18:23:25.438Z,25.57
2016-08-24T18:24:36.305Z,25.49
2016-08-24T18:25:47.883Z,25.47
2016-08-24T18:27:00.171Z,25.44
2016-08-24T18:28:12.456Z,25.41
2016-08-24T18:29:24.041Z,25.34
2016-08-24T18:30:35.686Z,25.3
2016-08-24T18:31:46.579Z,25.29
2016-08-24T18:32:58.141Z,25.23
2016-08-24T18:34:09.013Z,25.24
2016-08-24T18:35:21.300Z,25.14
2016-08-24T18:36:32.922Z,25.04
2016-08-24T18:37:44.507Z,25.02
2016-08-24T18:38:56.800Z,25.07
2016-08-24T18:40:09.086Z,25.02
2016-08-24T18:41:21.389Z,24.94
2016-08-24T18:42:33.023Z,24.97
2016-08-24T18:43:45.370Z,24.87
2016-08-24T18:44:57.202Z,24.87
2016-08-24T18:46:09.515Z,24.86
2016-08-24T18:47:21.806Z,24.85
2016-08-24T18:48:33.380Z,24.85
2016-08-24T18:49:45.743Z,24.78
2016-08-24T18:50:57.343Z,24.78
2016-08-24T18:52:08.234Z,24.75
2016-08-24T18:53:20.524Z,24.69
2016-08-24T18:54:30.704Z,24.71
2016-08-24T18:55:42.393Z,24.7
2016-08-24T18:56:54.180Z,24.58
2016-08-24T18:58:06.507Z,24.55
2016-08-24T18:59:18.094Z,24.59
2016-08-24T19:00:29.007Z,24.44
2016-08-24T19:01:40.796Z,24.46
2016-08-24T19:02:52.778Z,24.42
2016-08-24T19:04:03.011Z,24.39
2016-08-24T19:05:16.057Z,24.33
2016-08-24T19:06:32.420Z,24.29
2016-08-24T19:07:45.000Z,24.3
2016-08-24T19:08:56.702Z,24.22
2016-08-24T19:10:08.358Z,24.18
2016-08-24T19:11:19.962Z,24.09
2016-08-24T19:12:30.150Z,24.08
2016-08-24T19:13:42.490Z,24
2016-08-24T19:14:54.913Z,23.97
2016-08-24T19:16:05.805Z,23.92
2016-08-24T19:17:17.481Z,23.9
2016-08-24T19:18:29.120Z,23.87
2016-08-24T19:19:41.437Z,23.82
2016-08-24T19:20:53.051Z,23.87
2016-08-24T19:22:05.368Z,23.84
2016-08-24T19:23:17.692Z,23.81
2016-08-24T19:24:29.320Z,23.77
2016-08-24T19:25:41.042Z,23.75
2016-08-24T19:26:52.770Z,23.7
2016-08-24T19:28:05.382Z,23.72
2016-08-24T19:29:17.818Z,23.57
2016-08-24T19:30:30.424Z,23.66
2016-08-24T19:31:41.383Z,23.62
2016-08-24T19:32:53.928Z,23.63
2016-08-24T19:34:06.346Z,23.59
2016-08-24T19:35:17.222Z,23.5
2016-08-24T19:36:28.168Z,23.5
2016-08-24T19:37:40.596Z,23.56
2016-08-24T19:38:53.307Z,23.6
2016-08-24T19:40:05.672Z,23.59
2016-08-24T19:41:17.959Z,23.47
2016-08-24T19:42:29.724Z,23.57
2016-08-24T19:43:41.418Z,23.47
2016-08-24T19:44:53.944Z,23.4
2016-08-24T19:46:04.932Z,23.34
2016-08-24T19:47:16.636Z,23.4
2016-08-24T19:48:27.625Z,23.34
2016-08-24T19:49:38.818Z,23.29
2016-08-24T19:50:48.565Z,23.35
2016-08-24T19:51:59.611Z,23.37
2016-08-24T19:53:12.007Z,23.18
2016-08-24T19:54:24.394Z,23.28
2016-08-24T19:55:36.769Z,23.22
2016-08-24T19:56:48.513Z,23.18
2016-08-24T19:57:58.876Z,23.16
2016-08-24T19:59:11.229Z,23.14
2016-08-24T20:00:23.525Z,23.12
2016-08-24T20:01:35.128Z,23.07
2016-08-24T20:02:45.326Z,23.16
2016-08-24T20:03:56.897Z,23.07
2016-08-24T20:05:09.216Z,23.12
2016-08-24T20:06:20.816Z,23.07
2016-08-24T20:07:31.767Z,23.07
2016-08-24T20:08:43.645Z,23.01
2016-08-24T20:09:56.331Z,23.01
2016-08-24T20:11:08.203Z,23.01
2016-08-24T20:12:20.218Z,22.92
2016-08-24T20:13:33.027Z,23.01
2016-08-24T20:14:45.912Z,23
2016-08-24T20:15:58.542Z,22.92
2016-08-24T20:17:11.338Z,22.94
2016-08-24T20:18:23.357Z,22.91
2016-08-24T20:19:35.208Z,22.86
2016-08-24T20:20:46.924Z,22.89
2016-08-24T20:21:59.615Z,22.88
2016-08-24T20:23:12.037Z,22.88
2016-08-24T20:24:23.664Z,22.84
2016-08-24T20:25:36.044Z,22.84
2016-08-24T20:26:47.708Z,22.84
2016-08-24T20:27:59.387Z,22.81
2016-08-24T20:29:11.137Z,22.81
2016-08-24T20:30:22.012Z,22.81
2016-08-24T20:31:34.372Z,22.82
2016-08-24T20:32:46.006Z,22.73
2016-08-24T20:33:58.451Z,22.71
2016-08-24T20:35:09.358Z,22.61
2016-08-24T20:36:21.657Z,22.75
2016-08-24T20:37:33.984Z,22.66
2016-08-24T20:38:46.332Z,22.61
2016-08-24T20:39:57.916Z,22.7
2016-08-24T20:41:09.505Z,22.64
2016-08-24T20:42:21.816Z,22.7
2016-08-24T20:43:34.141Z,22.66
2016-08-24T20:44:45.030Z,22.63
2016-08-24T20:45:57.336Z,22.6
2016-08-24T20:47:08.937Z,22.57
2016-08-24T20:48:20.520Z,22.48
2016-08-24T20:49:32.797Z,22.51
2016-08-24T20:50:43.702Z,22.39
2016-08-24T20:51:56.020Z,22.38
2016-08-24T20:53:08.302Z,22.44
2016-08-24T20:54:19.199Z,22.29
2016-08-24T20:55:31.493Z,22.27
2016-08-24T20:56:43.796Z,22.29
2016-08-24T20:57:55.373Z,22.31
2016-08-24T20:59:07.664Z,22.18
2016-08-24T21:00:19.956Z,22.24
2016-08-24T21:01:31.535Z,22.16
2016-08-24T21:02:43.838Z,22.23
2016-08-24T21:03:55.407Z,22.07
2016-08-24T21:05:07.175Z,22.08
2016-08-24T21:06:19.461Z,22.12
2016-08-24T21:07:30.349Z,22.09
2016-08-24T21:08:41.289Z,22.04
2016-08-24T21:09:53.895Z,22
2016-08-24T21:11:05.665Z,21.97
2016-08-24T21:12:17.980Z,22
2016-08-24T21:13:30.338Z,21.99
2016-08-24T21:14:41.925Z,21.94
2016-08-24T21:15:54.338Z,21.94
2016-08-24T21:17:06.651Z,21.83
2016-08-24T21:18:17.538Z,21.93
2016-08-24T21:19:29.810Z,21.85
2016-08-24T21:20:41.413Z,21.8
2016-08-24T21:21:53.718Z,21.89
2016-08-24T21:23:05.297Z,21.82
2016-08-24T21:24:16.871Z,21.83
2016-08-24T21:25:28.465Z,21.68
2016-08-24T21:26:40.760Z,21.89
2016-08-24T21:27:53.033Z,21.68
2016-08-24T21:29:05.545Z,21.76
2016-08-24T21:30:17.121Z,21.85
2016-08-24T21:31:29.446Z,21.89
2016-08-24T21:32:40.310Z,21.78
2016-08-24T21:33:52.602Z,21.73
2016-08-24T21:35:03.477Z,21.8
2016-08-24T21:36:14.352Z,21.77
2016-08-24T21:37:26.648Z,21.71
2016-08-24T21:38:38.202Z,21.73
2016-08-24T21:39:49.786Z,21.74
2016-08-24T21:41:01.361Z,21.78
2016-08-24T21:42:13.642Z,21.74
2016-08-24T21:43:25.222Z,21.7
2016-08-24T21:44:37.476Z,21.74
2016-08-24T21:45:49.042Z,21.7
2016-08-24T21:47:01.307Z,21.71
2016-08-24T21:48:12.878Z,21.74
2016-08-24T21:49:24.445Z,21.62
2016-08-24T21:50:36.739Z,21.61
2016-08-24T21:51:48.299Z,21.62
2016-08-24T21:52:59.944Z,21.55
2016-08-24T21:54:11.508Z,21.52
2016-08-24T21:55:22.376Z,21.52
2016-08-24T21:56:34.648Z,21.52
2016-08-24T21:57:46.254Z,21.49
2016-08-24T21:58:57.822Z,21.51
2016-08-24T22:00:10.116Z,21.55
2016-08-24T22:01:22.421Z,21.48
2016-08-24T22:02:34.726Z,21.52
2016-08-24T22:03:46.993Z,21.49
2016-08-24T22:04:57.863Z,21.43
2016-08-24T22:06:10.140Z,21.45
2016-08-24T22:07:22.434Z,21.51
2016-08-24T22:08:33.307Z,21.52
2016-08-24T22:09:45.571Z,21.52
2016-08-24T22:10:57.847Z,21.45
2016-08-24T22:12:09.429Z,21.46
2016-08-24T22:13:20.308Z,21.41
2016-08-24T22:14:31.885Z,21.45
2016-08-24T22:15:44.165Z,21.34
2016-08-24T22:16:56.459Z,21.33
2016-08-24T22:18:06.634Z,21.27
2016-08-24T22:19:18.226Z,21.31
2016-08-24T22:20:29.825Z,21.19
2016-08-24T22:21:42.118Z,21.27
2016-08-24T22:22:53.713Z,21.19
2016-08-24T22:24:05.288Z,21.28
2016-08-24T22:25:17.573Z,21.19
2016-08-24T22:26:29.866Z,21.25
2016-08-24T22:27:42.127Z,21.19
2016-08-24T22:28:53.703Z,21.16
2016-08-24T22:30:05.287Z,21.18
2016-08-24T22:31:17.592Z,21.18
2016-08-24T22:32:29.941Z,21.25
2016-08-24T22:33:41.521Z,21.12
2016-08-24T22:34:53.798Z,21.19
2016-08-24T22:36:06.067Z,21.06
2016-08-24T22:37:17.650Z,21.08
2016-08-24T22:38:29.936Z,21.03
2016-08-24T22:39:42.231Z,20.94
2016-08-24T22:40:54.512Z,20.97
2016-08-24T22:42:06.797Z,20.94
2016-08-24T22:43:18.383Z,20.98
2016-08-24T22:44:29.970Z,20.82
2016-08-24T22:45:41.544Z,20.81
2016-08-24T22:46:53.820Z,20.79
2016-08-24T22:48:06.091Z,20.72
2016-08-24T22:49:18.373Z,20.74
2016-08-24T22:50:30.645Z,20.76
2016-08-24T22:51:42.221Z,20.74
2016-08-24T22:52:54.497Z,20.64
2016-08-24T22:54:06.786Z,20.72
2016-08-24T22:55:18.353Z,20.74
2016-08-24T22:56:29.206Z,20.72
2016-08-24T22:57:40.784Z,20.71
2016-08-24T22:58:53.083Z,20.68
2016-08-24T23:00:05.355Z,20.67
2016-08-24T23:01:16.235Z,20.64
2016-08-24T23:02:28.045Z,20.66
2016-08-24T23:03:40.310Z,20.64
2016-08-24T23:04:51.410Z,20.6
2016-08-24T23:06:03.689Z,20.64
2016-08-24T23:07:15.963Z,20.58
2016-08-24T23:08:27.554Z,20.58
2016-08-24T23:09:39.842Z,20.57
2016-08-24T23:10:50.703Z,20.64
2016-08-24T23:12:03.025Z,20.67
2016-08-24T23:13:14.607Z,20.67
2016-08-24T23:14:26.186Z,20.61
2016-08-24T23:15:37.771Z,20.57
2016-08-24T23:16:50.053Z,20.61
2016-08-24T23:18:02.330Z,20.53
2016-08-24T23:19:13.927Z,20.57
2016-08-24T23:20:25.485Z,20.63
2016-08-24T23:21:37.056Z,20.49
2016-08-24T23:22:47.913Z,20.6
2016-08-24T23:23:58.782Z,20.53
2016-08-24T23:25:11.057Z,20.51
2016-08-24T23:26:21.213Z,20.48
2016-08-24T23:27:33.501Z,20.51
2016-08-24T23:28:44.380Z,20.51
2016-08-24T23:29:55.245Z,20.38
2016-08-24T23:31:07.531Z,20.46
2016-08-24T23:32:19.805Z,20.44
2016-08-24T23:33:31.378Z,20.42
2016-08-24T23:34:43.674Z,20.44
2016-08-24T23:35:55.952Z,20.44
2016-08-24T23:37:08.232Z,20.49
2016-08-24T23:38:19.831Z,20.48
2016-08-24T23:39:30.697Z,20.41
2016-08-24T23:40:42.510Z,20.32
2016-08-24T23:41:54.785Z,20.35
2016-08-24T23:43:05.647Z,20.32
2016-08-24T23:44:16.530Z,20.32
2016-08-24T23:45:28.822Z,20.4
2016-08-24T23:46:41.089Z,20.41
2016-08-24T23:47:52.667Z,20.35
2016-08-24T23:49:04.230Z,20.38
2016-08-24T23:50:15.837Z,20.3
2016-08-24T23:51:26.939Z,20.35
2016-08-24T23:52:38.495Z,20.38
2016-08-24T23:53:50.779Z,20.37
2016-08-24T23:55:02.368Z,20.34
2016-08-24T23:56:14.672Z,20.3
2016-08-24T23:57:26.235Z,20.35
2016-08-24T23:58:37.792Z,20.37
2016-08-24T23:59:50.075Z,20.41
